Time;durP1;ratioP1;P1;durP2;ratioP2;P2;SDS_P1;SDS_P2;PMS_P1;PMS_P2;Temp;Humidity;BMP_temperature;BMP_pressure;BME280_temperature;BME280_humidity;BME280_pressure;Samples;Min_cycle;Max_cycle;Signal;HPM_P1;HPM_P2
2022/03/14 00:01:06;;;;;;;1.83;0.65;;;;;;;6.01;68.92;99958.81;5017797;28;20866;-50
2022/03/14 00:03:41;;;;;;;3.67;0.80;;;;;;;5.99;68.48;99960.50;5016655;28;20041;-47
2022/03/14 00:06:10;;;;;;;1.55;0.80;;;;;;;5.94;67.56;99951.84;5019926;28;20081;-48
2022/03/14 00:08:39;;;;;;;4.13;0.90;;;;;;;5.90;68.14;99956.06;5024471;28;20049;-47
2022/03/14 00:11:05;;;;;;;3.15;1.05;;;;;;;5.84;69.32;99961.97;5025732;28;20046;-47
2022/03/14 00:13:33;;;;;;;2.17;0.55;;;;;;;5.80;69.42;99970.50;5025971;28;20728;-43
2022/03/14 00:15:59;;;;;;;4.03;0.50;;;;;;;5.79;69.13;99969.66;5028244;28;20049;-46
2022/03/14 00:18:27;;;;;;;2.30;0.68;;;;;;;5.77;68.28;99973.88;5022595;28;20095;-48
2022/03/14 00:20:54;;;;;;;3.92;0.70;;;;;;;5.74;67.98;99983.25;5022984;28;20500;-44
2022/03/14 00:23:21;;;;;;;4.68;0.98;;;;;;;5.71;69.46;99975.50;5027186;28;20057;-43
2022/03/14 00:25:49;;;;;;;5.40;1.38;;;;;;;5.66;69.38;99978.88;5023040;28;20045;-45
2022/03/14 00:28:16;;;;;;;4.18;1.33;;;;;;;5.65;68.85;99991.69;5027276;28;20084;-42
2022/03/14 00:30:42;;;;;;;2.55;1.10;;;;;;;5.63;68.67;99985.63;5024372;28;20104;-43
2022/03/14 00:33:09;;;;;;;3.63;0.95;;;;;;;5.60;69.67;99994.16;5023544;28;20045;-43
2022/03/14 00:35:36;;;;;;;6.05;1.05;;;;;;;5.60;68.56;99995.84;5028620;28;20448;-45
2022/03/14 00:38:03;;;;;;;2.38;0.68;;;;;;;5.55;69.94;100006.06;5024992;28;20061;-46
2022/03/14 00:40:29;;;;;;;4.40;1.20;;;;;;;5.52;69.16;100008.59;5025505;28;20033;-44
2022/03/14 00:42:57;;;;;;;5.55;0.80;;;;;;;5.52;70.01;100021.44;5022398;28;20608;-43
2022/03/14 00:45:40;;;;;;;4.63;1.17;;;;;;;5.48;69.79;100019.66;5024130;28;20175;-43
2022/03/14 00:48:07;;;;;;;1.13;0.65;;;;;;;5.46;70.15;100021.31;5022241;28;20053;-43
2022/03/14 00:50:34;;;;;;;3.13;0.70;;;;;;;5.45;69.88;100029.88;5023135;28;20042;-45
2022/03/14 00:53:00;;;;;;;6.85;0.93;;;;;;;5.40;69.78;100038.34;5024252;28;20481;-43
2022/03/14 00:55:27;;;;;;;2.47;1.15;;;;;;;5.38;70.34;100034.88;5020941;28;20116;-45
2022/03/14 00:57:53;;;;;;;2.50;0.93;;;;;;;5.38;69.88;100039.19;5018091;28;20820;-45
2022/03/14 01:00:20;;;;;;;2.55;0.55;;;;;;;5.33;70.46;100036.50;5020169;28;20049;-45
2022/03/14 01:02:50;;;;;;;1.55;0.57;;;;;;;5.31;69.42;100048.47;5019445;28;20469;-45
2022/03/14 01:05:17;;;;;;;3.63;0.50;;;;;;;5.28;69.99;100058.69;5020733;28;20049;-45
2022/03/14 01:07:44;;;;;;;1.35;0.52;;;;;;;5.26;70.48;100070.63;5022204;28;20057;-44
2022/03/14 01:10:10;;;;;;;3.17;0.52;;;;;;;5.24;70.31;100064.59;5021735;28;20052;-46
2022/03/14 01:12:37;;;;;;;3.40;1.27;;;;;;;5.22;69.68;100058.56;5016026;28;20050;-44
2022/03/14 01:15:04;;;;;;;1.75;0.52;;;;;;;5.20;70.21;100071.34;5022649;28;20049;-45
2022/03/14 01:17:30;;;;;;;4.57;1.02;;;;;;;5.17;70.22;100080.72;5022232;28;20095;-43
2022/03/14 01:19:57;;;;;;;3.03;0.90;;;;;;;5.13;70.69;100080.66;5024692;28;20054;-44
2022/03/14 01:22:24;;;;;;;2.22;0.63;;;;;;;5.08;70.70;100092.53;5023399;28;20647;-47
2022/03/14 01:24:50;;;;;;;4.50;1.08;;;;;;;5.07;70.10;100095.06;5026947;28;20057;-46
2022/03/14 01:27:17;;;;;;;2.78;1.08;;;;;;;5.03;69.93;100100.97;5023776;28;20061;-45
2022/03/14 01:29:43;;;;;;;4.25;0.93;;;;;;;5.02;69.94;100102.66;5025994;28;20057;-43
2022/03/14 01:32:10;;;;;;;2.35;0.90;;;;;;;4.99;70.84;100103.47;5025890;28;20049;-46
2022/03/14 01:34:37;;;;;;;5.93;0.98;;;;;;;4.97;70.72;100101.72;5021531;28;20072;-42
2022/03/14 01:37:04;;;;;;;2.63;1.27;;;;;;;4.92;70.74;100105.88;5023201;28;20046;-44
2022/03/14 01:39:31;;;;;;;2.72;1.02;;;;;;;4.89;70.76;100112.69;5024189;28;20053;-46
2022/03/14 01:41:58;;;;;;;3.03;0.63;;;;;;;4.89;70.83;100119.50;5023820;28;20099;-44
2022/03/14 01:44:26;;;;;;;3.00;0.57;;;;;;;4.86;71.48;100117.75;5022595;28;20060;-47
2022/03/14 01:46:53;;;;;;;3.67;1.35;;;;;;;4.84;70.43;100128.81;5019841;28;20045;-44
2022/03/14 01:49:20;;;;;;;2.45;1.08;;;;;;;4.82;70.62;100139.03;5024190;28;20046;-44
2022/03/14 01:51:47;;;;;;;3.58;1.17;;;;;;;4.79;71.17;100141.53;5025792;28;20124;-43
2022/03/14 01:54:14;;;;;;;2.92;0.90;;;;;;;4.79;70.74;100135.56;5021601;28;20108;-46
2022/03/14 01:56:41;;;;;;;2.63;0.90;;;;;;;4.75;71.01;100147.44;5019229;28;20045;-45
2022/03/14 01:59:09;;;;;;;2.95;0.95;;;;;;;4.74;71.09;100150.84;5021446;28;20088;-45
2022/03/14 02:01:35;;;;;;;7.90;1.10;;;;;;;4.72;70.50;100167.88;5025040;28;20103;-43
2022/03/14 02:04:03;;;;;;;2.65;1.08;;;;;;;4.69;71.13;100165.28;5026037;28;20523;-43
2022/03/14 02:06:30;;;;;;;4.03;0.85;;;;;;;4.67;71.01;100161.78;5023073;28;20370;-44
2022/03/14 02:08:57;;;;;;;2.47;0.85;;;;;;;4.65;71.25;100173.69;5026491;28;20045;-45
2022/03/14 02:11:24;;;;;;;4.45;1.08;;;;;;;4.62;71.54;100172.81;5023061;28;20045;-45
2022/03/14 02:13:50;;;;;;;4.28;1.15;;;;;;;4.60;71.34;100179.59;5022915;28;20046;-43
2022/03/14 02:16:17;;;;;;;5.38;1.27;;;;;;;4.57;71.79;100182.13;5020561;28;20791;-46
2022/03/14 02:18:44;;;;;;;5.32;1.23;;;;;;;4.54;71.85;100192.28;5022741;28;20065;-44
2022/03/14 02:21:13;;;;;;;4.07;1.02;;;;;;;4.50;72.40;100190.47;5024461;28;20664;-43
2022/03/14 02:23:40;;;;;;;3.85;1.95;;;;;;;4.49;71.94;100194.72;5020641;28;20084;-47
2022/03/14 02:26:07;;;;;;;1.90;0.77;;;;;;;4.47;72.41;100203.22;5023557;28;20046;-44
2022/03/14 02:28:34;;;;;;;3.05;1.30;;;;;;;4.44;72.71;100205.72;5024677;28;20084;-43
2022/03/14 02:31:03;;;;;;;3.30;0.80;;;;;;;4.44;72.10;100210.84;5022376;28;20042;-50
2022/03/14 02:33:32;;;;;;;3.75;0.88;;;;;;;4.42;72.77;100215.09;5024789;28;20084;-48
2022/03/14 02:35:59;;;;;;;3.30;1.13;;;;;;;4.37;72.58;100210.69;5018466;28;20069;-45
2022/03/14 02:38:26;;;;;;;3.90;1.33;;;;;;;4.35;72.53;100209.78;5022730;28;20061;-42
2022/03/14 02:40:52;;;;;;;2.92;1.92;;;;;;;4.35;72.62;100217.47;5021752;28;20042;-45
2022/03/14 02:43:24;;;;;;;4.70;1.40;;;;;;;4.33;72.42;100214.00;5022004;28;20539;-43
2022/03/14 02:45:52;;;;;;;3.97;1.30;;;;;;;4.31;72.09;100215.66;5022783;28;20107;-46
2022/03/14 02:48:19;;;;;;;4.97;1.65;;;;;;;4.32;72.31;100222.53;5018207;28;20689;-43
2022/03/14 02:50:49;;;;;;;2.85;1.73;;;;;;;4.30;72.73;100228.44;5020547;28;20044;-44
2022/03/14 02:53:16;;;;;;;5.97;1.45;;;;;;;4.28;72.73;100230.97;5022808;28;20497;-42
2022/03/14 02:55:42;;;;;;;10.57;1.92;;;;;;;4.26;72.56;100237.78;5020305;28;20049;-43
2022/03/14 02:58:09;;;;;;;4.18;1.13;;;;;;;4.24;72.55;100244.53;5019535;28;20049;-43
2022/03/14 03:00:36;;;;;;;5.22;1.52;;;;;;;4.23;73.00;100253.06;5023529;28;20083;-44
2022/03/14 03:03:06;;;;;;;3.90;1.15;;;;;;;4.20;72.29;100252.97;5023339;28;20052;-46
2022/03/14 03:05:35;;;;;;;2.47;0.90;;;;;;;4.19;72.17;100264.06;5025138;28;20390;-46
2022/03/14 03:08:04;;;;;;;2.95;1.08;;;;;;;4.17;72.71;100270.84;5027105;28;20143;-45
2022/03/14 03:10:34;;;;;;;5.57;1.10;;;;;;;4.16;72.91;100271.66;5027908;28;20493;-46
2022/03/14 03:13:02;;;;;;;;;;;;;;;4.09;73.43;100278.34;5022240;28;20045;-42
2022/03/14 03:15:30;;;;;;;2.67;1.20;;;;;;;4.11;72.59;100282.66;5028145;28;20540;-44
2022/03/14 03:17:56;;;;;;;5.50;1.38;;;;;;;4.09;72.95;100286.88;5025668;28;20054;-44
2022/03/14 03:20:25;;;;;;;6.22;1.17;;;;;;;4.07;73.25;100278.28;5024462;28;20041;-50
2022/03/14 03:22:52;;;;;;;3.70;1.25;;;;;;;4.06;72.66;100284.22;5024208;28;20512;-47
2022/03/14 03:25:19;;;;;;;2.05;1.50;;;;;;;4.05;72.74;100290.19;5026518;28;20111;-47
2022/03/14 03:27:46;;;;;;;2.92;1.23;;;;;;;4.06;72.67;100297.03;5024515;28;20049;-42
2022/03/14 03:30:13;;;;;;;1.60;0.80;;;;;;;4.04;72.50;100303.84;5024583;28;20107;-43
2022/03/14 03:32:39;;;;;;;3.05;1.20;;;;;;;4.03;72.44;100312.34;5026538;28;20041;-46
2022/03/14 03:35:06;;;;;;;3.45;1.25;;;;;;;4.01;73.00;100316.56;5023020;28;20046;-45
2022/03/14 03:37:34;;;;;;;6.65;1.33;;;;;;;4.01;73.03;100321.69;5024505;28;20084;-45
2022/03/14 03:40:01;;;;;;;6.38;0.98;;;;;;;4.01;72.63;100328.53;5024098;28;20057;-43
2022/03/14 03:42:27;;;;;;;3.92;1.00;;;;;;;3.97;73.33;100332.66;5023932;28;20420;-43
2022/03/14 03:44:54;;;;;;;6.05;1.02;;;;;;;3.97;73.00;100337.81;5020748;28;20132;-43
2022/03/14 03:47:22;;;;;;;2.22;0.85;;;;;;;3.96;72.71;100333.50;5019572;28;20049;-44
2022/03/14 03:49:48;;;;;;;3.30;1.00;;;;;;;3.95;72.71;100342.03;5021832;28;20053;-44
2022/03/14 03:52:15;;;;;;;3.33;0.80;;;;;;;3.94;72.74;100343.72;5024693;28;20104;-46
2022/03/14 03:54:42;;;;;;;4.35;0.57;;;;;;;3.91;73.18;100342.72;5024638;28;20128;-43
2022/03/14 03:57:08;;;;;;;4.20;1.02;;;;;;;3.92;72.86;100357.31;5023230;28;20111;-44
2022/03/14 03:59:35;;;;;;;3.13;0.80;;;;;;;3.90;73.01;100356.38;5025950;28;20045;-45
2022/03/14 04:02:02;;;;;;;3.50;1.05;;;;;;;3.88;73.67;100365.72;5021580;28;20053;-43
2022/03/14 04:04:30;;;;;;;5.93;0.88;;;;;;;3.88;73.49;100370.84;5022284;28;20092;-44
2022/03/14 04:06:57;;;;;;;5.32;1.02;;;;;;;3.88;73.01;100387.09;5024933;28;20485;-44
2022/03/14 04:09:24;;;;;;;8.82;1.30;;;;;;;3.87;72.66;100398.16;5024155;28;20120;-42
2022/03/14 04:11:51;;;;;;;3.80;0.80;;;;;;;3.86;72.79;100407.53;5024222;28;20107;-42
2022/03/14 04:14:21;;;;;;;4.20;0.93;;;;;;;3.83;73.05;100402.34;5020671;28;20371;-42
2022/03/14 04:17:40;;;;;;;6.80;1.33;;;;;;;3.79;73.86;100403.06;5024557;28;20108;-44
2022/03/14 04:20:09;;;;;;;4.85;1.02;;;;;;;3.80;73.23;100404.81;5020532;28;20062;-45
2022/03/14 04:22:37;;;;;;;5.45;1.30;;;;;;;3.80;74.10;100407.38;5022467;28;20485;-45
2022/03/14 04:25:06;;;;;;;2.75;0.80;;;;;;;3.82;73.80;100405.72;5023975;28;20072;-44
2022/03/14 04:27:50;;;;;;;2.90;0.68;;;;;;;3.81;73.99;100414.22;5022398;28;20047;-46
2022/03/14 04:30:16;;;;;;;3.90;0.77;;;;;;;3.81;73.83;100408.22;5023605;28;20049;-41
2022/03/14 04:32:44;;;;;;;3.53;0.50;;;;;;;3.81;74.30;100415.91;5025613;28;20072;-45
2022/03/14 04:35:10;;;;;;;6.93;1.13;;;;;;;3.84;74.03;100419.44;5023404;28;20436;-43
2022/03/14 04:37:37;;;;;;;2.58;1.17;;;;;;;3.82;74.36;100425.34;5019810;28;20050;-40
2022/03/14 04:40:04;;;;;;;5.00;1.73;;;;;;;3.82;73.48;100433.03;5023213;28;20053;-41
2022/03/14 04:42:32;;;;;;;5.47;0.73;;;;;;;3.80;73.79;100433.00;5024786;28;20042;-40
2022/03/14 04:44:58;;;;;;;4.78;1.55;;;;;;;3.80;73.82;100440.69;5023332;28;20045;-43
2022/03/14 04:47:26;;;;;;;2.28;0.73;;;;;;;3.78;73.70;100444.88;5022874;28;20460;-41
2022/03/14 04:49:53;;;;;;;4.25;1.27;;;;;;;3.76;74.07;100450.78;5026029;28;20050;-43
2022/03/14 04:52:21;;;;;;;7.75;0.77;;;;;;;3.72;74.40;100449.81;5022837;28;20045;-45
2022/03/14 04:54:53;;;;;;;2.63;0.93;;;;;;;3.69;74.32;100457.41;5018776;28;20041;-41
2022/03/14 04:57:20;;;;;;;2.30;0.77;;;;;;;3.69;73.99;100470.22;5022071;28;20053;-40
2022/03/14 04:59:46;;;;;;;6.50;0.90;;;;;;;3.69;74.29;100475.34;5021956;28;20493;-44
2022/03/14 05:02:13;;;;;;;4.55;0.68;;;;;;;3.69;73.37;100465.09;5023669;28;20524;-43
2022/03/14 05:04:39;;;;;;;3.67;0.52;;;;;;;3.67;73.62;100470.16;5022132;28;20064;-43
2022/03/14 05:07:07;;;;;;;6.25;0.95;;;;;;;3.65;73.82;100473.50;5020176;28;20057;-43
2022/03/14 05:09:34;;;;;;;5.18;0.90;;;;;;;3.65;74.21;100470.94;5021960;28;20453;-42
2022/03/14 05:12:00;;;;;;;4.28;0.65;;;;;;;3.63;73.67;100486.25;5024113;28;20115;-41
2022/03/14 05:14:27;;;;;;;3.20;0.95;;;;;;;3.62;73.62;100483.63;5021687;28;20436;-43
2022/03/14 05:16:57;;;;;;;3.50;0.90;;;;;;;3.62;74.17;100481.97;5022527;28;20045;-41
2022/03/14 05:19:24;;;;;;;6.05;1.17;;;;;;;3.59;74.41;100490.38;5022183;28;20050;-42
2022/03/14 05:21:50;;;;;;;3.03;0.90;;;;;;;3.59;73.81;100494.66;5023808;28;20041;-43
2022/03/14 05:24:17;;;;;;;3.08;0.90;;;;;;;3.58;73.91;100508.28;5024869;28;20053;-41
2022/03/14 05:26:44;;;;;;;3.88;0.93;;;;;;;3.57;73.94;100512.53;5022788;28;20551;-41
2022/03/14 05:29:12;;;;;;;6.43;0.88;;;;;;;3.55;74.44;100503.91;5025093;28;20049;-41
2022/03/14 05:31:39;;;;;;;4.75;0.90;;;;;;;3.54;73.55;100502.19;5022512;28;20050;-44
2022/03/14 05:34:06;;;;;;;3.83;1.02;;;;;;;3.54;73.93;100509.88;5023292;28;20054;-42
2022/03/14 05:36:33;;;;;;;8.35;1.17;;;;;;;3.52;73.93;100508.06;5016304;28;20046;-43
2022/03/14 05:39:00;;;;;;;3.55;0.70;;;;;;;3.50;74.77;100512.25;5023828;28;20107;-40
2022/03/14 05:41:26;;;;;;;6.25;0.63;;;;;;;3.48;74.25;100517.38;5019406;28;20053;-41
2022/03/14 05:43:53;;;;;;;7.95;1.50;;;;;;;3.46;73.81;100519.00;5021825;28;20045;-42
2022/03/14 05:46:19;;;;;;;3.22;0.88;;;;;;;3.44;74.24;100528.28;5019959;28;20103;-45
2022/03/14 05:48:46;;;;;;;5.28;1.05;;;;;;;3.44;73.64;100535.97;5022785;28;20085;-42
2022/03/14 05:51:13;;;;;;;5.75;1.15;;;;;;;3.41;73.83;100541.00;5022822;28;20513;-40
2022/03/14 05:53:40;;;;;;;6.20;1.58;;;;;;;3.41;73.89;100533.34;5022253;28;20049;-41
2022/03/14 05:56:06;;;;;;;6.95;0.98;;;;;;;3.38;74.72;100531.50;5022508;28;20096;-39
2022/03/14 05:58:33;;;;;;;5.20;1.17;;;;;;;3.38;74.49;100556.28;5021643;28;20054;-42
2022/03/14 06:01:00;;;;;;;10.70;1.10;;;;;;;3.37;74.21;100551.97;5020798;28;20083;-44
2022/03/14 06:03:27;;;;;;;4.15;1.48;;;;;;;3.37;74.56;100554.53;5019408;28;20494;-42
2022/03/14 06:05:53;;;;;;;3.45;0.55;;;;;;;3.37;74.57;100554.53;5022875;28;20079;-43
2022/03/14 06:08:20;;;;;;;5.97;0.82;;;;;;;3.36;75.37;100557.88;5022096;28;20351;-40
2022/03/14 06:10:46;;;;;;;2.28;1.00;;;;;;;3.37;74.44;100564.78;5023611;28;20050;-43
2022/03/14 06:13:13;;;;;;;3.88;1.70;;;;;;;3.34;75.02;100566.41;5017879;28;20166;-46
2022/03/14 06:15:41;;;;;;;7.55;1.38;;;;;;;3.33;74.60;100577.47;5022120;28;20489;-40
2022/03/14 06:18:08;;;;;;;2.78;1.25;;;;;;;3.33;74.28;100574.91;5021664;28;20049;-42
2022/03/14 06:20:35;;;;;;;7.57;1.10;;;;;;;3.33;74.67;100579.16;5021064;28;20088;-41
2022/03/14 06:23:02;;;;;;;6.40;1.27;;;;;;;3.31;75.33;100589.34;5024777;28;20091;-45
2022/03/14 06:25:28;;;;;;;10.63;1.50;;;;;;;3.32;74.80;100587.66;5023531;28;20045;-44
2022/03/14 06:27:55;;;;;;;7.22;1.65;;;;;;;3.32;74.38;100585.94;5023405;28;20094;-45
2022/03/14 06:30:22;;;;;;;4.90;1.38;;;;;;;3.31;74.28;100586.78;5018163;28;20058;-42
2022/03/14 06:32:49;;;;;;;6.65;1.33;;;;;;;3.30;74.60;100585.03;5019245;28;20046;-44
2022/03/14 06:35:17;;;;;;;6.30;2.25;;;;;;;3.33;74.82;100589.38;5023735;28;20080;-44
2022/03/14 06:37:45;;;;;;;8.10;1.42;;;;;;;3.34;75.95;100597.13;5018970;28;20494;-45
2022/03/14 06:40:13;;;;;;;4.68;1.70;;;;;;;3.38;75.34;100602.38;5023226;28;20092;-46
2022/03/14 06:42:41;;;;;;;6.32;2.05;;;;;;;3.40;76.03;100595.59;5023503;28;20050;-43
2022/03/14 06:45:09;;;;;;;7.78;2.10;;;;;;;3.44;75.65;100607.69;5024284;28;20120;-43
2022/03/14 06:47:38;;;;;;;8.38;1.55;;;;;;;3.45;75.38;100617.13;5027501;28;20466;-43
2022/03/14 06:50:06;;;;;;;8.13;1.25;;;;;;;3.49;76.05;100624.09;5027349;28;20041;-40
2022/03/14 06:52:33;;;;;;;10.20;2.22;;;;;;;3.52;75.87;100626.78;5024670;28;20053;-42
2022/03/14 06:55:00;;;;;;;7.30;2.00;;;;;;;3.55;76.08;100637.13;5029395;28;20049;-40
2022/03/14 06:57:27;;;;;;;6.88;1.15;;;;;;;3.59;75.04;100628.72;5026686;28;20110;-42
2022/03/14 06:59:53;;;;;;;7.60;1.23;;;;;;;3.62;76.03;100629.66;5029944;28;20049;-41
2022/03/14 07:02:20;;;;;;;10.70;1.80;;;;;;;3.66;75.05;100629.81;5020411;28;20127;-41
2022/03/14 07:04:47;;;;;;;11.63;1.65;;;;;;;3.68;76.43;100632.44;5026000;28;20049;-42
2022/03/14 07:07:14;;;;;;;12.02;1.60;;;;;;;3.75;75.50;100642.06;5027204;28;20116;-40
2022/03/14 07:09:40;;;;;;;9.52;2.20;;;;;;;3.77;75.21;100643.00;5028452;28;20513;-40
2022/03/14 07:12:11;;;;;;;9.93;2.70;;;;;;;3.82;75.34;100651.72;5026751;28;20053;-41
2022/03/14 07:14:37;;;;;;;7.70;1.50;;;;;;;3.88;76.29;100645.06;5029372;28;20466;-43
2022/03/14 07:17:04;;;;;;;10.80;2.33;;;;;;;3.91;76.25;100651.16;5026157;28;20041;-44
2022/03/14 07:19:34;;;;;;;7.13;1.95;;;;;;;3.97;76.40;100655.63;5023242;28;20041;-42
2022/03/14 07:22:02;;;;;;;6.40;2.35;;;;;;;4.02;76.24;100654.09;5025651;28;20041;-44
2022/03/14 07:24:28;;;;;;;12.65;2.28;;;;;;;4.08;76.02;100658.53;5024409;28;20053;-40
2022/03/14 07:26:55;;;;;;;9.70;1.58;;;;;;;4.16;76.08;100657.13;5017578;28;20096;-42
2022/03/14 07:29:21;;;;;;;8.77;2.25;;;;;;;4.23;76.18;100665.91;5023294;28;20049;-41
2022/03/14 07:31:48;;;;;;;13.45;2.97;;;;;;;4.30;76.45;100667.84;5018676;28;20054;-42
2022/03/14 07:34:14;;;;;;;7.88;2.95;;;;;;;4.38;76.41;100670.66;5026546;28;20119;-43
2022/03/14 07:36:42;;;;;;;10.65;1.98;;;;;;;4.47;76.09;100675.22;5026312;28;20046;-48
2022/03/14 07:39:09;;;;;;;13.60;2.78;;;;;;;4.61;76.34;100691.94;5021243;28;20107;-45
2022/03/14 07:41:36;;;;;;;9.70;2.40;;;;;;;5.19;77.37;100695.38;5020864;28;21447;-41
2022/03/14 07:44:04;;;;;;;17.50;4.35;;;;;;;6.06;76.43;100697.81;5024574;28;20088;-47
2022/03/14 07:46:34;;;;;;;10.15;3.42;;;;;;;6.97;74.50;100694.84;5021757;28;20556;-44
2022/03/14 07:49:01;;;;;;;9.98;3.38;;;;;;;7.81;74.08;100701.72;5023108;28;20045;-41
2022/03/14 07:51:28;;;;;;;10.07;3.30;;;;;;;8.54;71.66;100704.75;5022877;28;20046;-41
2022/03/14 07:53:55;;;;;;;6.50;2.88;;;;;;;9.11;69.81;100705.59;5025760;28;20045;-41
2022/03/14 07:56:21;;;;;;;8.63;3.00;;;;;;;9.60;68.07;100716.56;5024645;28;20108;-44
2022/03/14 07:58:49;;;;;;;9.70;3.67;;;;;;;10.07;67.61;100709.31;5021812;28;20580;-43
2022/03/14 08:01:17;;;;;;;15.73;3.28;;;;;;;10.42;66.08;100716.53;5021816;28;20091;-41
2022/03/14 08:03:45;;;;;;;9.85;3.03;;;;;;;10.78;66.47;100727.22;5022464;28;20121;-42
2022/03/14 08:06:19;;;;;;;12.35;3.35;;;;;;;11.14;64.75;100732.59;5024479;28;20703;-42
2022/03/14 08:08:47;;;;;;;8.82;3.28;;;;;;;11.47;64.40;100741.44;5022849;28;20057;-46
2022/03/14 08:11:13;;;;;;;10.20;2.45;;;;;;;11.80;63.38;100736.38;5020224;28;20065;-42
2022/03/14 08:13:40;;;;;;;8.57;4.07;;;;;;;12.25;63.28;100744.31;5023344;28;20052;-42
2022/03/14 08:16:12;;;;;;;12.25;3.92;;;;;;;12.85;62.86;100746.06;5024806;28;20056;-43
2022/03/14 08:18:40;;;;;;;10.45;4.28;;;;;;;13.54;61.81;100753.72;5020314;28;20053;-43
2022/03/14 08:21:06;;;;;;;19.83;7.90;;;;;;;14.25;60.47;100759.44;5019968;28;20053;-42
2022/03/14 08:23:35;;;;;;;21.70;9.43;;;;;;;14.97;59.45;100751.09;5016915;28;20056;-48
2022/03/14 08:26:01;;;;;;;12.90;5.25;;;;;;;15.65;57.21;100762.53;5024284;28;20486;-46
2022/03/14 08:28:28;;;;;;;12.23;5.18;;;;;;;16.12;56.02;100756.72;5022729;28;20669;-46
2022/03/14 08:30:56;;;;;;;12.20;5.55;;;;;;;16.43;54.45;100762.34;5022568;28;20103;-47
2022/03/14 08:33:22;;;;;;;13.32;6.03;;;;;;;16.60;54.40;100771.66;5024462;28;20046;-44
2022/03/14 08:35:49;;;;;;;10.65;4.22;;;;;;;16.60;53.37;100773.41;5024952;28;20076;-47
2022/03/14 08:38:16;;;;;;;7.80;3.72;;;;;;;16.63;52.38;100778.59;5029333;28;20053;-43
2022/03/14 08:40:43;;;;;;;11.90;4.22;;;;;;;16.93;52.01;100779.81;5027156;28;20473;-46
2022/03/14 08:43:09;;;;;;;10.68;4.82;;;;;;;17.19;51.53;100782.91;5027945;28;20046;-46
2022/03/14 08:45:36;;;;;;;12.23;5.07;;;;;;;17.39;52.10;100779.88;5022987;28;20497;-44
2022/03/14 08:48:04;;;;;;;10.30;3.97;;;;;;;17.77;51.50;100789.63;5026162;28;20123;-43
2022/03/14 08:50:32;;;;;;;8.52;3.50;;;;;;;18.35;50.12;100789.28;5025801;28;20037;-45
2022/03/14 08:52:58;;;;;;;7.93;2.80;;;;;;;18.73;49.93;100792.72;5024167;28;20041;-49
2022/03/14 08:55:43;;;;;;;5.32;3.10;;;;;;;19.37;49.67;100803.38;5022414;28;20544;-43
2022/03/14 08:58:09;;;;;;;7.25;2.63;;;;;;;19.94;47.78;100808.75;5021320;28;20050;-49
2022/03/14 09:00:38;;;;;;;11.98;5.20;;;;;;;20.37;46.76;100816.28;5022602;28;20042;-51
2022/03/14 09:03:05;;;;;;;21.23;8.18;;;;;;;20.89;45.87;100823.41;5024460;28;20071;-48
2022/03/14 09:05:32;;;;;;;20.42;9.32;;;;;;;21.41;45.03;100822.50;5025097;28;20054;-51
2022/03/14 09:07:59;;;;;;;11.75;4.50;;;;;;;21.81;44.22;100815.78;5024746;28;20049;-44
2022/03/14 09:10:26;;;;;;;19.02;6.70;;;;;;;22.29;42.53;100826.28;5028134;28;20053;-47
2022/03/14 09:12:53;;;;;;;16.23;6.03;;;;;;;22.69;42.18;100822.97;5026423;28;20107;-48
2022/03/14 09:15:20;;;;;;;7.28;2.95;;;;;;;22.97;41.16;100824.47;5025641;28;20144;-45
2022/03/14 09:17:50;;;;;;;12.43;5.28;;;;;;;23.42;40.86;100832.25;5022330;28;20058;-45
2022/03/14 09:20:19;;;;;;;10.13;5.57;;;;;;;23.94;40.48;100828.19;5024574;28;20049;-45
2022/03/14 09:22:47;;;;;;;11.52;4.00;;;;;;;24.34;39.25;100833.38;5021758;28;20041;-45
2022/03/14 09:25:15;;;;;;;8.80;2.40;;;;;;;24.44;38.22;100833.78;5021009;28;20135;-45
2022/03/14 09:27:42;;;;;;;8.57;3.50;;;;;;;24.46;37.65;100835.44;5019861;28;20556;-46
2022/03/14 09:30:11;;;;;;;5.10;3.15;;;;;;;24.56;37.28;100842.94;5004432;28;20050;-46
2022/03/14 09:32:38;;;;;;;5.43;2.20;;;;;;;24.76;37.44;100844.59;5026050;28;20046;-47
2022/03/14 09:35:06;;;;;;;8.43;3.10;;;;;;;24.93;36.24;100850.84;5021641;28;20095;-44
2022/03/14 09:37:36;;;;;;;7.85;2.88;;;;;;;25.08;35.44;100850.06;5016558;28;20107;-45
2022/03/14 09:40:06;;;;;;;10.32;4.88;;;;;;;25.21;35.37;100852.09;5025182;28;20049;-46
2022/03/14 09:42:38;;;;;;;8.20;2.63;;;;;;;25.29;34.37;100852.53;5024688;28;20429;-49
2022/03/14 09:45:07;;;;;;;9.07;3.05;;;;;;;25.40;35.32;100850.19;5023281;28;20057;-48
2022/03/14 09:47:37;;;;;;;6.07;2.58;;;;;;;25.52;34.37;100861.06;5022623;28;20100;-47
2022/03/14 09:50:08;;;;;;;6.05;2.88;;;;;;;25.71;34.40;100857.47;5022620;28;20103;-50
2022/03/14 09:52:37;;;;;;;8.85;3.83;;;;;;;25.76;34.09;100860.72;5023576;28;20099;-46
2022/03/14 09:55:06;;;;;;;8.07;2.13;;;;;;;25.95;34.13;100865.91;5015835;28;20707;-45
2022/03/14 09:57:36;;;;;;;6.22;2.40;;;;;;;26.09;33.50;100865.16;5017536;28;20057;-46
2022/03/14 10:00:06;;;;;;;9.15;3.10;;;;;;;26.36;33.33;100872.53;5023861;28;20091;-48
2022/03/14 10:02:36;;;;;;;5.85;1.98;;;;;;;26.52;32.50;100869.00;5019851;28;20056;-48
2022/03/14 10:05:06;;;;;;;5.93;2.53;;;;;;;26.64;32.82;100872.78;5018382;28;20616;-48
2022/03/14 10:07:34;;;;;;;6.30;2.20;;;;;;;26.67;32.54;100873.44;5016811;28;20049;-49
2022/03/14 10:10:04;;;;;;;8.85;3.00;;;;;;;26.67;32.63;100876.09;5019275;28;20053;-47
2022/03/14 10:12:32;;;;;;;7.43;1.65;;;;;;;26.80;32.27;100886.00;5021587;28;21664;-47
2022/03/14 10:15:01;;;;;;;7.55;2.63;;;;;;;26.79;31.47;100881.63;5028216;28;20399;-44
2022/03/14 10:17:28;;;;;;;7.40;2.63;;;;;;;26.81;31.11;100879.72;5028975;28;20053;-48
2022/03/14 10:19:59;;;;;;;5.43;2.63;;;;;;;26.82;31.51;100881.47;5029118;28;20406;-44
2022/03/14 10:22:33;;;;;;;8.18;2.08;;;;;;;26.88;30.93;100886.41;5028539;28;20111;-51
2022/03/14 10:25:03;;;;;;;11.57;3.13;;;;;;;26.74;31.09;100899.66;5021742;28;20072;-48
2022/03/14 10:27:33;;;;;;;5.20;1.98;;;;;;;26.77;31.32;100896.81;5028713;28;20447;-49
2022/03/14 10:30:01;;;;;;;5.57;2.42;;;;;;;26.56;31.10;100897.97;5028160;28;20433;-45
2022/03/14 10:32:34;;;;;;;4.97;1.75;;;;;;;26.49;31.10;100895.72;5030360;28;20049;-46
2022/03/14 10:35:04;;;;;;;5.63;1.80;;;;;;;26.46;31.12;100891.47;5027375;28;20045;-47
2022/03/14 10:37:32;;;;;;;6.10;1.75;;;;;;;26.38;31.13;100894.53;5028892;28;20044;-46
2022/03/14 10:42:42;;;;;;;5.43;2.72;;;;;;;26.09;30.55;100894.34;5134448;27;20391;-49
2022/03/14 10:45:16;;;;;;;6.75;1.40;;;;;;;25.95;30.90;100899.53;5110840;28;20453;-51
2022/03/14 10:47:45;;;;;;;6.35;2.90;;;;;;;25.78;30.75;100893.34;5111465;28;20116;-46
2022/03/14 10:50:30;;;;;;;5.40;3.13;;;;;;;25.44;28.85;100889.81;5102597;28;20048;-44
2022/03/14 10:53:04;;;;;;;5.25;2.90;;;;;;;25.20;28.59;100890.13;5102339;28;20045;-52
2022/03/14 11:00:52;;;;;;;34.45;16.88;;;;;;;24.59;30.93;100901.88;5055970;27;20409;-50
2022/03/14 11:03:24;;;;;;;5.65;2.50;;;;;;;24.04;30.25;100908.81;5041214;28;20048;-46
2022/03/14 11:05:53;;;;;;;9.40;3.08;;;;;;;23.17;31.35;100910.78;5057342;28;20045;-45
2022/03/14 11:08:45;;;;;;;9.95;4.60;;;;;;;22.57;31.27;100912.31;5057229;28;20049;-47
2022/03/14 11:11:21;;;;;;;8.52;2.40;;;;;;;22.19;31.75;100909.34;5057009;28;20045;-45
2022/03/14 11:13:50;;;;;;;;;;;;;;;21.68;32.54;100912.03;5060572;28;20109;-46
2022/03/14 11:16:34;;;;;;;6.03;2.25;;;;;;;21.22;32.92;100904.81;5052765;28;19921;-48
2022/03/14 11:19:01;;;;;;;7.00;1.63;;;;;;;20.96;34.44;100909.19;5056921;28;20095;-46
2022/03/14 11:21:32;;;;;;;8.30;2.85;;;;;;;20.50;34.05;100906.22;5055967;28;20051;-46
2022/03/14 11:24:00;;;;;;;5.57;1.33;;;;;;;20.17;34.48;100899.28;5052251;28;20041;-44
2022/03/14 11:26:27;;;;;;;2.90;0.73;;;;;;;19.64;34.54;100900.72;5056949;28;20045;-48
2022/03/14 11:28:55;;;;;;;5.60;0.90;;;;;;;19.25;35.14;100907.84;5058140;28;20138;-46
2022/03/14 11:31:22;;;;;;;3.38;1.25;;;;;;;18.87;35.39;100909.59;5055062;28;20036;-47
2022/03/14 11:33:49;;;;;;;13.07;3.20;;;;;;;18.59;35.91;100905.88;5053107;28;20511;-48
2022/03/14 11:36:19;;;;;;;10.75;3.22;;;;;;;18.34;35.87;100911.66;5060637;28;20045;-45
2022/03/14 11:38:46;;;;;;;14.50;2.85;;;;;;;18.16;37.67;100918.16;5056571;28;20053;-48
2022/03/14 11:41:13;;;;;;;6.38;1.73;;;;;;;17.91;37.24;100910.75;5059064;28;20045;-47